Time;durP1;ratioP1;P1;durP2;ratioP2;P2;SDS_P1;SDS_P2;PMS_P1;PMS_P2;Temp;Humidity;BMP_temperature;BMP_pressure;BME280_temperature;BME280_humidity;BME280_pressure;Samples;Min_cycle;Max_cycle;Signal;HPM_P1;HPM_P2
2023/09/09 00:00:00;;;;;;;5.43;4.80;;;23.60;84.80;;;;;;4967662;28;20101;-78
2023/09/09 00:02:26;;;;;;;5.03;4.70;;;23.60;85.00;;;;;;4968792;28;20500;-80
2023/09/09 00:04:53;;;;;;;5.60;5.18;;;23.60;85.00;;;;;;4969044;28;20034;-79
2023/09/09 00:07:19;;;;;;;5.53;5.22;;;23.60;84.90;;;;;;4970585;28;20497;-79
2023/09/09 00:09:45;;;;;;;5.50;5.10;;;23.60;84.80;;;;;;4969579;28;20051;-79
2023/09/09 00:12:10;;;;;;;5.75;5.38;;;23.60;84.80;;;;;;4967592;28;20484;-79
2023/09/09 00:14:37;;;;;;;5.80;5.30;;;23.50;85.10;;;;;;4967950;28;20043;-79
2023/09/09 00:17:03;;;;;;;5.60;5.10;;;23.50;85.10;;;;;;4969190;28;20043;-79
2023/09/09 00:19:28;;;;;;;5.40;5.00;;;23.50;85.00;;;;;;4967249;28;20049;-79
2023/09/09 00:21:55;;;;;;;6.28;5.88;;;23.40;85.30;;;;;;4967081;28;20031;-79
2023/09/09 00:24:20;;;;;;;6.13;5.72;;;23.40;85.40;;;;;;4970305;28;20043;-79
2023/09/09 00:26:46;;;;;;;5.72;5.32;;;23.40;85.60;;;;;;4966574;28;20043;-79
2023/09/09 00:29:11;;;;;;;5.60;5.28;;;23.40;85.50;;;;;;4967647;28;20539;-79
2023/09/09 00:31:37;;;;;;;5.60;5.30;;;23.30;85.50;;;;;;4970458;28;20046;-78
2023/09/09 00:34:02;;;;;;;6.20;5.80;;;23.30;85.50;;;;;;4965445;28;20055;-79
2023/09/09 00:36:28;;;;;;;5.65;5.30;;;23.30;85.70;;;;;;4969723;28;20046;-79
2023/09/09 00:38:54;;;;;;;5.85;5.47;;;23.20;85.80;;;;;;4964809;28;20420;-79
2023/09/09 00:41:20;;;;;;;6.00;5.70;;;23.20;85.80;;;;;;4969036;28;20043;-79
2023/09/09 00:43:46;;;;;;;6.32;5.80;;;23.20;85.90;;;;;;4968661;28;20090;-78
2023/09/09 00:46:12;;;;;;;5.57;5.22;;;23.20;86.20;;;;;;4969166;28;20141;-79
2023/09/09 00:48:37;;;;;;;5.90;5.50;;;23.20;86.30;;;;;;4969000;28;20073;-79
2023/09/09 00:51:04;;;;;;;5.72;5.30;;;23.20;86.10;;;;;;4968314;28;20126;-79
2023/09/09 00:53:30;;;;;;;6.35;5.95;;;23.20;86.10;;;;;;4965850;28;20047;-79
2023/09/09 00:55:55;;;;;;;5.57;5.22;;;23.10;85.90;;;;;;4969357;28;20126;-79
2023/09/09 00:58:22;;;;;;;6.45;5.85;;;23.00;86.20;;;;;;4969081;28;20777;-79
2023/09/09 01:00:48;;;;;;;5.65;5.20;;;23.00;86.00;;;;;;4967687;28;20042;-78
2023/09/09 01:03:14;;;;;;;5.28;4.88;;;23.10;86.50;;;;;;4967872;28;20434;-79
2023/09/09 01:05:39;;;;;;;6.47;5.85;;;23.00;86.00;;;;;;4968495;28;20035;-79
2023/09/09 01:08:05;;;;;;;5.75;5.45;;;23.10;86.30;;;;;;4965943;28;21446;-79
2023/09/09 01:10:30;;;;;;;6.05;5.75;;;23.10;86.30;;;;;;4962652;28;20046;-79
2023/09/09 01:12:56;;;;;;;6.40;5.90;;;23.00;86.40;;;;;;4961549;28;20509;-79
2023/09/09 01:15:22;;;;;;;6.30;5.90;;;23.00;86.40;;;;;;4967364;28;20073;-79
2023/09/09 01:17:48;;;;;;;6.70;6.22;;;22.90;86.60;;;;;;4964918;28;20402;-78
2023/09/09 01:20:14;;;;;;;6.10;5.80;;;22.90;86.70;;;;;;4967126;28;20062;-79
2023/09/09 01:22:44;;;;;;;6.47;6.07;;;22.90;86.80;;;;;;4967122;28;20049;-79
2023/09/09 01:25:10;;;;;;;6.72;6.18;;;22.90;86.80;;;;;;4965430;28;20053;-79
2023/09/09 01:27:36;;;;;;;6.18;5.70;;;22.90;86.90;;;;;;4965905;28;21269;-79
2023/09/09 01:30:03;;;;;;;6.75;6.25;;;22.90;86.90;;;;;;4966350;28;20042;-79
2023/09/09 01:32:29;;;;;;;6.22;5.85;;;22.80;87.60;;;;;;4966119;28;20089;-78
2023/09/09 01:34:55;;;;;;;6.45;6.05;;;22.80;86.80;;;;;;4966686;28;20405;-78
2023/09/09 01:37:21;;;;;;;7.13;6.65;;;22.80;86.70;;;;;;4969062;28;20582;-80
2023/09/09 01:39:46;;;;;;;6.32;5.88;;;22.80;86.90;;;;;;4966447;28;20042;-80
2023/09/09 01:42:12;;;;;;;6.55;6.15;;;22.80;86.90;;;;;;4965736;28;20038;-80
2023/09/09 01:44:38;;;;;;;6.65;6.05;;;22.80;86.70;;;;;;4967472;28;20062;-79
2023/09/09 01:47:05;;;;;;;6.78;6.25;;;22.80;86.90;;;;;;4966838;28;20097;-79
2023/09/09 01:49:30;;;;;;;6.65;6.25;;;22.70;87.00;;;;;;4967149;28;20051;-79
2023/09/09 01:51:56;;;;;;;6.63;6.32;;;22.70;87.30;;;;;;4967409;28;20066;-79
2023/09/09 01:54:21;;;;;;;6.85;6.30;;;22.70;87.20;;;;;;4965526;28;20102;-80
2023/09/09 01:56:47;;;;;;;6.93;6.53;;;22.70;87.20;;;;;;4968020;28;20500;-80
2023/09/09 01:59:13;;;;;;;6.82;6.45;;;22.70;87.50;;;;;;4967548;28;20047;-79
2023/09/09 02:01:38;;;;;;;7.78;7.15;;;22.70;87.70;;;;;;4969413;28;20440;-79
2023/09/09 02:04:04;;;;;;;6.95;6.45;;;22.70;87.50;;;;;;4965929;28;20093;-78
2023/09/09 02:06:30;;;;;;;6.78;6.38;;;22.70;87.60;;;;;;4965619;28;20130;-79
2023/09/09 02:08:56;;;;;;;7.18;6.65;;;22.60;87.50;;;;;;4966833;28;20041;-79
2023/09/09 02:11:21;;;;;;;7.22;6.75;;;22.60;87.30;;;;;;4968504;28;20397;-79
2023/09/09 02:13:47;;;;;;;6.95;6.35;;;22.60;87.30;;;;;;4964792;28;22230;-79
2023/09/09 02:16:12;;;;;;;6.88;6.38;;;22.50;87.10;;;;;;4964459;28;20486;-79
2023/09/09 02:18:39;;;;;;;7.38;6.78;;;22.60;87.50;;;;;;4966953;28;20039;-78
2023/09/09 02:21:05;;;;;;;6.65;6.22;;;22.50;87.40;;;;;;4964052;28;20038;-78
2023/09/09 02:23:31;;;;;;;6.93;6.30;;;22.50;87.20;;;;;;4964556;28;20131;-78
2023/09/09 02:25:57;;;;;;;7.47;7.07;;;22.50;87.40;;;;;;4965420;28;20047;-78
2023/09/09 02:28:22;;;;;;;7.32;6.80;;;22.40;87.50;;;;;;4968715;28;20035;-78
2023/09/09 02:30:48;;;;;;;7.68;7.25;;;22.40;87.70;;;;;;4965691;28;20039;-78
2023/09/09 02:33:14;;;;;;;7.60;7.10;;;22.50;87.60;;;;;;4966042;28;20582;-78
2023/09/09 02:35:45;;;;;;;7.85;7.15;;;22.50;87.50;;;;;;4962001;28;20101;-78
2023/09/09 02:38:11;;;;;;;8.13;7.63;;;22.40;88.30;;;;;;4964661;28;20568;-78
2023/09/09 02:40:36;;;;;;;7.53;6.95;;;22.30;87.60;;;;;;4966502;28;20031;-79
2023/09/09 02:43:02;;;;;;;6.85;6.45;;;22.40;87.60;;;;;;4965871;28;20046;-78
2023/09/09 02:45:28;;;;;;;7.40;6.90;;;22.40;87.70;;;;;;4967586;28;20043;-78
2023/09/09 02:47:53;;;;;;;7.57;7.07;;;22.40;87.80;;;;;;4963809;28;20035;-78
2023/09/09 02:50:19;;;;;;;7.97;7.47;;;22.40;88.20;;;;;;4965325;28;20043;-78
2023/09/09 02:52:44;;;;;;;7.80;7.32;;;22.40;88.20;;;;;;4966278;28;20038;-78
2023/09/09 02:55:10;;;;;;;7.28;6.78;;;22.30;87.80;;;;;;4964375;28;20085;-78
2023/09/09 02:57:36;;;;;;;7.45;6.82;;;22.30;87.80;;;;;;4965817;28;20046;-79
2023/09/09 03:00:02;;;;;;;7.45;7.00;;;22.30;88.20;;;;;;4966250;28;20067;-79
2023/09/09 03:02:27;;;;;;;7.28;6.80;;;22.30;87.80;;;;;;4966062;28;20038;-78
2023/09/09 03:04:53;;;;;;;7.75;7.30;;;22.30;87.80;;;;;;4963006;28;20038;-77
2023/09/09 03:07:19;;;;;;;7.65;6.95;;;22.30;88.00;;;;;;4964599;28;20111;-78
2023/09/09 03:09:45;;;;;;;8.15;7.45;;;22.30;88.10;;;;;;4966026;28;20213;-79
2023/09/09 03:12:11;;;;;;;6.97;6.50;;;22.30;88.00;;;;;;4964771;28;20536;-78
2023/09/09 03:14:36;;;;;;;8.45;7.90;;;22.20;87.60;;;;;;4966932;28;20063;-79
2023/09/09 03:17:02;;;;;;;8.15;7.50;;;22.20;88.30;;;;;;4965423;28;20501;-79
2023/09/09 03:19:28;;;;;;;7.57;7.00;;;22.20;87.80;;;;;;4965244;28;20159;-79
2023/09/09 03:21:54;;;;;;;7.90;7.40;;;22.20;87.90;;;;;;4964864;28;20110;-77
2023/09/09 03:24:19;;;;;;;7.32;6.80;;;22.20;87.90;;;;;;4964953;28;20386;-79
2023/09/09 03:26:45;;;;;;;7.93;7.30;;;22.20;88.00;;;;;;4966453;28;20038;-79
2023/09/09 03:29:10;;;;;;;6.97;6.57;;;22.20;88.00;;;;;;4964295;28;20043;-78
2023/09/09 03:31:36;;;;;;;7.45;6.90;;;22.20;87.90;;;;;;4966002;28;20023;-77
2023/09/09 03:34:01;;;;;;;7.38;6.88;;;22.20;88.00;;;;;;4965058;28;20399;-78
2023/09/09 03:36:27;;;;;;;7.55;7.15;;;22.20;87.90;;;;;;4964228;28;20039;-78
2023/09/09 03:38:52;;;;;;;7.70;7.00;;;22.20;88.60;;;;;;4964541;28;20082;-79
2023/09/09 03:41:18;;;;;;;7.20;6.72;;;22.10;88.00;;;;;;4965098;28;20043;-78
2023/09/09 03:43:44;;;;;;;7.60;6.97;;;22.10;87.80;;;;;;4967929;28;20073;-79
2023/09/09 03:46:09;;;;;;;6.20;5.70;;;22.10;87.70;;;;;;4963784;28;20401;-79
2023/09/09 03:48:35;;;;;;;6.50;5.95;;;22.00;87.50;;;;;;4964736;28;20106;-79
2023/09/09 03:51:01;;;;;;;6.70;6.20;;;22.00;87.60;;;;;;4964104;28;20034;-79
2023/09/09 03:53:27;;;;;;;7.30;6.72;;;22.00;87.30;;;;;;4966771;28;20039;-79
2023/09/09 03:55:52;;;;;;;6.90;6.60;;;22.00;87.30;;;;;;4962648;28;20501;-79
2023/09/09 03:58:18;;;;;;;7.70;6.97;;;22.00;87.20;;;;;;4966980;28;20448;-78
2023/09/09 04:00:46;;;;;;;7.20;6.53;;;22.00;87.20;;;;;;4965683;28;20039;-79
2023/09/09 04:03:12;;;;;;;7.05;6.50;;;22.00;87.60;;;;;;4962613;28;20035;-79
2023/09/09 04:05:38;;;;;;;7.10;6.70;;;22.00;87.80;;;;;;4965842;28;20050;-79
2023/09/09 04:08:08;;;;;;;7.03;6.63;;;21.90;87.90;;;;;;4964804;28;20045;-78
2023/09/09 04:10:34;;;;;;;7.32;6.72;;;21.90;88.10;;;;;;4967289;28;20084;-78
2023/09/09 04:13:00;;;;;;;7.07;6.43;;;21.90;88.10;;;;;;4964264;28;20118;-78
2023/09/09 04:15:25;;;;;;;7.88;7.30;;;21.90;88.10;;;;;;4967750;28;20051;-78
2023/09/09 04:17:51;;;;;;;7.22;6.82;;;21.90;88.20;;;;;;4967716;28;20551;-79
2023/09/09 04:20:16;;;;;;;7.40;6.70;;;21.90;88.40;;;;;;4965088;28;22586;-79
2023/09/09 04:22:42;;;;;;;7.38;6.88;;;21.90;88.40;;;;;;4969664;28;20043;-78
2023/09/09 04:25:07;;;;;;;8.23;7.72;;;21.80;88.50;;;;;;4967033;28;20050;-78
2023/09/09 04:27:33;;;;;;;7.13;6.70;;;21.80;88.60;;;;;;4967051;28;20043;-78
2023/09/09 04:29:59;;;;;;;7.05;6.60;;;21.80;88.80;;;;;;4969148;28;20119;-77
2023/09/09 04:32:24;;;;;;;7.00;6.38;;;21.80;88.60;;;;;;4969702;28;20125;-78
2023/09/09 04:34:50;;;;;;;6.55;6.10;;;21.80;88.80;;;;;;4968200;28;20050;-79
2023/09/09 04:37:16;;;;;;;7.22;6.72;;;21.80;88.60;;;;;;4967718;28;20122;-78
2023/09/09 04:39:41;;;;;;;8.27;7.72;;;21.80;88.30;;;;;;4968690;28;20050;-79
2023/09/09 04:42:07;;;;;;;7.25;6.85;;;21.80;88.10;;;;;;4969007;28;20042;-78
2023/09/09 04:44:32;;;;;;;6.57;6.10;;;21.70;88.30;;;;;;4968859;28;20485;-78
2023/09/09 04:46:58;;;;;;;6.78;6.38;;;21.70;88.20;;;;;;4968324;28;20047;-78
2023/09/09 04:49:24;;;;;;;6.78;6.38;;;21.80;88.10;;;;;;4967990;28;20046;-78
2023/09/09 04:51:49;;;;;;;7.65;7.00;;;21.80;88.40;;;;;;4967589;28;20050;-78
2023/09/09 04:54:15;;;;;;;7.63;7.13;;;21.80;88.60;;;;;;4968305;28;20527;-78
2023/09/09 04:56:41;;;;;;;7.95;7.45;;;21.70;88.70;;;;;;4969085;28;20429;-78
2023/09/09 04:59:06;;;;;;;7.20;6.80;;;21.70;88.70;;;;;;4967599;28;20038;-77
2023/09/09 05:01:32;;;;;;;8.02;7.32;;;21.70;88.60;;;;;;4968538;28;20049;-78
2023/09/09 05:03:57;;;;;;;8.10;7.60;;;21.70;89.20;;;;;;4963289;28;20414;-79
2023/09/09 05:06:23;;;;;;;7.90;7.40;;;21.70;88.30;;;;;;4968151;28;20038;-78
2023/09/09 05:08:49;;;;;;;7.75;7.15;;;21.70;88.50;;;;;;4968853;28;20512;-78
2023/09/09 05:11:15;;;;;;;8.13;7.63;;;21.60;88.60;;;;;;4968826;28;20062;-78
2023/09/09 05:13:40;;;;;;;7.75;7.07;;;21.60;89.50;;;;;;4968733;28;20042;-79
2023/09/09 05:16:06;;;;;;;7.20;6.55;;;21.60;88.90;;;;;;4967225;28;20406;-77
2023/09/09 05:18:31;;;;;;;8.23;7.63;;;21.60;89.00;;;;;;4967938;28;20050;-78
2023/09/09 05:20:57;;;;;;;8.70;8.02;;;21.60;88.90;;;;;;4969013;28;20042;-78
2023/09/09 05:23:22;;;;;;;8.18;7.57;;;21.60;88.70;;;;;;4967517;28;20051;-78
2023/09/09 05:25:48;;;;;;;8.90;8.20;;;21.60;88.60;;;;;;4969603;28;20050;-78
2023/09/09 05:28:14;;;;;;;7.93;7.43;;;21.60;88.60;;;;;;4967920;28;20522;-79
2023/09/09 05:30:42;;;;;;;7.40;6.82;;;21.50;88.70;;;;;;4967618;28;20055;-79
2023/09/09 05:33:08;;;;;;;6.90;6.40;;;21.50;88.60;;;;;;4965638;28;20047;-79
2023/09/09 05:35:34;;;;;;;6.60;6.20;;;21.40;88.50;;;;;;4966242;28;20117;-79
2023/09/09 05:37:59;;;;;;;6.30;5.88;;;21.30;89.10;;;;;;4963935;28;20042;-78
2023/09/09 05:40:25;;;;;;;6.70;6.30;;;21.20;89.30;;;;;;4968384;28;20078;-79
2023/09/09 05:42:50;;;;;;;6.47;6.18;;;21.10;90.00;;;;;;4968284;28;20472;-79
2023/09/09 05:45:16;;;;;;;7.70;7.18;;;21.10;90.40;;;;;;4966338;28;20420;-78
2023/09/09 05:47:44;;;;;;;7.15;6.57;;;21.10;89.80;;;;;;4967791;28;20106;-78
2023/09/09 05:50:11;;;;;;;6.10;5.70;;;21.00;90.00;;;;;;4966508;28;20049;-78
2023/09/09 05:52:37;;;;;;;6.45;6.05;;;21.00;90.00;;;;;;4968503;28;20042;-78
2023/09/09 05:55:03;;;;;;;6.95;6.32;;;21.00;90.10;;;;;;4965520;28;20039;-79
2023/09/09 05:57:28;;;;;;;7.03;6.40;;;21.10;90.10;;;;;;4966311;28;20045;-78
2023/09/09 05:59:54;;;;;;;6.05;5.75;;;21.00;90.10;;;;;;4966371;28;20067;-78
2023/09/09 06:02:19;;;;;;;6.50;6.10;;;20.90;90.30;;;;;;4967100;28;20054;-80
2023/09/09 06:04:45;;;;;;;6.60;6.07;;;21.00;90.20;;;;;;4965261;28;20035;-80
2023/09/09 06:07:11;;;;;;;14.63;6.70;;;21.00;90.10;;;;;;4966464;28;20046;-79
2023/09/09 06:09:37;;;;;;;7.30;6.90;;;21.10;89.60;;;;;;4968297;28;20038;-79
2023/09/09 06:12:03;;;;;;;7.63;7.13;;;21.20;89.30;;;;;;4966545;28;20413;-79
2023/09/09 06:14:28;;;;;;;7.35;6.95;;;21.10;90.10;;;;;;4964796;28;20509;-80
2023/09/09 06:16:54;;;;;;;7.22;6.82;;;21.10;90.10;;;;;;4620106;28;10000046;-79
2023/09/09 06:19:19;;;;;;;6.25;5.82;;;21.20;90.00;;;;;;4964489;28;20555;-78
2023/09/09 06:21:45;;;;;;;6.55;6.20;;;21.00;90.10;;;;;;4962508;28;20389;-79
2023/09/09 06:24:12;;;;;;;5.80;5.47;;;21.10;90.10;;;;;;4959676;28;20767;-79
2023/09/09 06:26:38;;;;;;;6.97;6.57;;;21.10;90.20;;;;;;4964518;28;20170;-79
2023/09/09 06:29:04;;;;;;;6.47;5.97;;;21.10;90.30;;;;;;4956126;28;20046;-79
2023/09/09 06:31:30;;;;;;;7.63;7.03;;;21.10;90.40;;;;;;4963168;28;20432;-79
2023/09/09 06:33:55;;;;;;;7.75;7.10;;;21.10;90.40;;;;;;4959216;28;20504;-79
2023/09/09 06:36:21;;;;;;;7.57;6.63;;;21.20;90.20;;;;;;4963204;28;20528;-78
2023/09/09 06:38:47;;;;;;;6.30;5.90;;;21.30;90.20;;;;;;4960746;28;20508;-79
2023/09/09 06:41:13;;;;;;;6.57;6.18;;;21.20;90.10;;;;;;4962670;28;20061;-79
2023/09/09 06:43:38;;;;;;;7.05;6.47;;;21.30;90.10;;;;;;4965285;28;20512;-78
2023/09/09 06:46:04;;;;;;;7.43;6.88;;;21.30;90.20;;;;;;4965016;28;20500;-78
2023/09/09 06:48:30;;;;;;;6.20;5.80;;;21.30;90.50;;;;;;4960528;28;20059;-78
2023/09/09 06:50:55;;;;;;;5.82;5.07;;;21.30;90.60;;;;;;4963283;28;20124;-77
2023/09/09 06:53:22;;;;;;;5.82;5.53;;;21.60;90.10;;;;;;4961842;28;20043;-78
2023/09/09 06:55:47;;;;;;;6.30;5.88;;;21.90;88.20;;;;;;4962593;28;20126;-78
2023/09/09 06:58:13;;;;;;;4.40;4.10;;;22.00;87.80;;;;;;4960992;28;20576;-77
2023/09/09 07:00:39;;;;;;;6.53;5.93;;;22.00;87.70;;;;;;4963869;28;20055;-77
2023/09/09 07:03:05;;;;;;;5.10;4.70;;;22.20;88.40;;;;;;4960729;28;20093;-77
2023/09/09 07:05:34;;;;;;;5.38;5.03;;;22.10;87.50;;;;;;4960336;28;20054;-77
2023/09/09 07:08:00;;;;;;;5.05;4.25;;;22.20;87.30;;;;;;4963353;28;20085;-78
2023/09/09 07:10:25;;;;;;;6.80;4.70;;;22.20;87.40;;;;;;4963078;28;20118;-78
2023/09/09 07:12:52;;;;;;;5.35;4.30;;;22.20;87.30;;;;;;4962947;28;20531;-78
2023/09/09 07:15:17;;;;;;;5.20;4.50;;;22.30;87.00;;;;;;4963104;28;20046;-77
2023/09/09 07:17:45;;;;;;;4.70;4.35;;;22.30;86.60;;;;;;4962280;28;20043;-77
2023/09/09 07:20:11;;;;;;;4.72;4.43;;;22.40;86.80;;;;;;4960139;28;20035;-78
2023/09/09 07:22:36;;;;;;;4.43;4.20;;;22.40;86.70;;;;;;4965226;28;20515;-78
2023/09/09 07:25:02;;;;;;;4.93;4.57;;;22.50;86.70;;;;;;4954730;28;20039;-78
2023/09/09 07:27:28;;;;;;;4.22;4.03;;;22.50;86.50;;;;;;4960568;28;20047;-78
2023/09/09 07:29:53;;;;;;;5.93;3.92;;;22.50;86.40;;;;;;4962869;28;20042;-78
2023/09/09 07:32:19;;;;;;;3.95;3.65;;;22.50;87.20;;;;;;4959877;28;20063;-78
2023/09/09 07:34:44;;;;;;;5.00;4.50;;;22.40;86.50;;;;;;4961376;28;20039;-77
2023/09/09 07:37:10;;;;;;;4.60;4.30;;;22.30;86.80;;;;;;4962803;28;20050;-78
2023/09/09 07:39:45;;;;;;;4.82;4.40;;;22.40;86.60;;;;;;4961635;28;20493;-77
2023/09/09 07:42:12;;;;;;;4.20;3.90;;;22.40;86.50;;;;;;4960882;28;20070;-77
2023/09/09 07:44:38;;;;;;;4.53;3.72;;;22.50;86.70;;;;;;4965751;28;20039;-78
2023/09/09 07:47:06;;;;;;;4.35;4.00;;;22.60;86.10;;;;;;4966383;28;20375;-78
2023/09/09 07:49:33;;;;;;;4.50;4.10;;;22.60;86.20;;;;;;4960150;28;20038;-76
2023/09/09 07:51:59;;;;;;;3.38;3.17;;;22.60;86.20;;;;;;4963144;28;20039;-76
2023/09/09 07:54:24;;;;;;;4.05;3.75;;;22.60;86.40;;;;;;4967828;28;20404;-77
2023/09/09 07:56:50;;;;;;;3.83;3.40;;;22.60;87.50;;;;;;4971040;28;20039;-76
2023/09/09 07:59:15;;;;;;;4.60;4.20;;;22.80;86.50;;;;;;4968202;28;20042;-77
2023/09/09 08:01:42;;;;;;;3.50;3.25;;;22.80;85.90;;;;;;4967620;28;20031;-77
2023/09/09 08:04:07;;;;;;;5.47;3.60;;;22.80;86.30;;;;;;4968125;28;20156;-77
2023/09/09 08:06:33;;;;;;;5.57;4.15;;;22.80;86.90;;;;;;4966057;28;20110;-78
2023/09/09 08:08:58;;;;;;;4.60;3.97;;;22.80;86.80;;;;;;4968251;28;20053;-78
2023/09/09 08:11:24;;;;;;;8.35;3.83;;;22.80;86.90;;;;;;4968136;28;20046;-78
2023/09/09 08:13:49;;;;;;;4.53;4.03;;;22.80;86.90;;;;;;4969981;28;20130;-78
2023/09/09 08:16:15;;;;;;;3.80;3.50;;;22.90;86.60;;;;;;4967560;28;20039;-77
2023/09/09 08:18:40;;;;;;;3.72;3.42;;;22.90;86.00;;;;;;4969683;28;20489;-79
2023/09/09 08:21:06;;;;;;;3.65;3.35;;;22.90;85.90;;;;;;4968752;28;20109;-79
2023/09/09 08:23:32;;;;;;;5.18;3.38;;;22.90;86.10;;;;;;4967543;28;20059;-79
2023/09/09 08:25:58;;;;;;;4.32;3.75;;;23.00;86.20;;;;;;4969725;28;20046;-79
2023/09/09 08:28:23;;;;;;;3.80;3.50;;;23.00;85.90;;;;;;4969780;28;20050;-78
2023/09/09 08:30:50;;;;;;;4.07;3.55;;;23.00;85.50;;;;;;4970191;28;20402;-78
2023/09/09 08:33:15;;;;;;;3.92;3.25;;;23.00;85.10;;;;;;4965727;28;20512;-78
2023/09/09 08:35:41;;;;;;;9.88;3.60;;;23.10;85.00;;;;;;4967718;28;20054;-77
2023/09/09 08:38:07;;;;;;;3.50;3.20;;;23.10;84.80;;;;;;4968968;28;20540;-77
2023/09/09 08:40:35;;;;;;;3.83;3.50;;;23.20;84.60;;;;;;4969649;28;20425;-77
2023/09/09 08:43:32;;;;;;;3.88;3.40;;;23.10;84.70;;;;;;4967602;28;20050;-77
2023/09/09 08:46:11;;;;;;;5.72;3.15;;;23.20;84.60;;;;;;4965449;28;20493;-77
2023/09/09 08:48:37;;;;;;;3.88;3.47;;;23.20;84.50;;;;;;4966267;28;20042;-77
2023/09/09 08:51:04;;;;;;;3.67;3.38;;;23.20;84.50;;;;;;4967810;28;20041;-77
2023/09/09 08:53:30;;;;;;;5.22;3.60;;;23.20;84.50;;;;;;4965913;28;20055;-77
2023/09/09 08:55:56;;;;;;;4.30;4.00;;;23.30;84.50;;;;;;4968819;28;20152;-78
2023/09/09 08:58:22;;;;;;;3.53;3.22;;;23.30;84.20;;;;;;4967114;28;20054;-77
2023/09/09 09:00:48;;;;;;;5.10;3.90;;;23.40;84.10;;;;;;4965346;28;20055;-78
2023/09/09 09:03:14;;;;;;;4.55;3.83;;;23.40;83.80;;;;;;4967251;28;20046;-77
2023/09/09 09:05:40;;;;;;;4.20;3.80;;;23.50;84.80;;;;;;4969268;28;20101;-77
2023/09/09 09:08:07;;;;;;;6.18;3.60;;;23.50;84.20;;;;;;4965009;28;20047;-77
2023/09/09 09:10:32;;;;;;;6.28;3.53;;;23.50;82.90;;;;;;4969318;28;20492;-77
2023/09/09 09:12:58;;;;;;;5.95;3.28;;;23.50;82.50;;;;;;4950812;28;20512;-77
2023/09/09 09:15:24;;;;;;;3.88;3.65;;;23.50;82.20;;;;;;4968368;28;20511;-77
2023/09/09 09:17:51;;;;;;;3.60;3.30;;;23.60;82.20;;;;;;4967078;28;20043;-76
2023/09/09 09:20:27;;;;;;;4.32;3.17;;;23.60;82.10;;;;;;4967341;28;20074;-77
2023/09/09 09:22:53;;;;;;;4.65;3.90;;;23.60;81.60;;;;;;4967217;28;20031;-77
2023/09/09 09:25:21;;;;;;;7.68;3.45;;;23.60;81.00;;;;;;4963478;28;20051;-77
2023/09/09 09:27:47;;;;;;;3.90;3.13;;;23.70;81.00;;;;;;4952300;28;20509;-77
2023/09/09 09:30:13;;;;;;;3.58;3.38;;;23.70;80.50;;;;;;4958149;28;20051;-77
2023/09/09 09:32:41;;;;;;;3.40;3.10;;;23.70;80.10;;;;;;4961813;28;20089;-77
2023/09/09 09:35:22;;;;;;;3.28;3.08;;;23.80;79.40;;;;;;4965410;28;20109;-77
2023/09/09 09:37:52;;;;;;;4.57;3.28;;;23.80;79.80;;;;;;4965653;28;20042;-78
2023/09/09 09:40:18;;;;;;;3.13;2.88;;;23.90;78.70;;;;;;4966868;28;20520;-77
2023/09/09 09:42:43;;;;;;;3.72;3.33;;;23.90;78.50;;;;;;4966955;28;20054;-76
2023/09/09 09:45:09;;;;;;;4.32;2.97;;;23.90;78.60;;;;;;4967174;28;20034;-75
2023/09/09 09:47:47;;;;;;;13.32;3.60;;;24.00;78.50;;;;;;4966494;28;20035;-75
2023/09/09 09:50:34;;;;;;;4.03;3.00;;;24.00;79.60;;;;;;4967206;28;20096;-77
2023/09/09 09:53:00;;;;;;;3.45;2.72;;;24.00;79.30;;;;;;4965295;28;20098;-77
2023/09/09 09:55:26;;;;;;;3.22;2.83;;;24.00;78.80;;;;;;4968174;28;20054;-76
2023/09/09 09:58:05;;;;;;;3.38;2.67;;;24.00;78.70;;;;;;4966698;28;20046;-77
2023/09/09 10:00:31;;;;;;;3.55;2.97;;;24.00;78.80;;;;;;4967707;28;20557;-77
2023/09/09 10:02:58;;;;;;;3.33;3.03;;;24.00;78.70;;;;;;4965944;28;20035;-77
2023/09/09 10:05:25;;;;;;;4.07;3.60;;;24.00;79.10;;;;;;4967967;28;20039;-77
2023/09/09 10:08:11;;;;;;;5.25;3.20;;;24.00;79.20;;;;;;4968797;28;20398;-77
2023/09/09 10:10:38;;;;;;;4.65;3.50;;;24.00;78.70;;;;;;4967667;28;20042;-77
2023/09/09 10:13:08;;;;;;;3.42;3.22;;;24.00;79.70;;;;;;4963661;28;20050;-77
2023/09/09 10:15:33;;;;;;;5.63;3.25;;;24.00;79.10;;;;;;4966861;28;20094;-77
2023/09/09 10:17:59;;;;;;;4.38;3.60;;;24.00;79.10;;;;;;4965424;28;20046;-77
2023/09/09 10:20:25;;;;;;;3.80;3.50;;;24.00;79.40;;;;;;4967028;28;20057;-77
2023/09/09 10:22:53;;;;;;;4.22;3.80;;;24.00;79.40;;;;;;4968559;28;20053;-78
2023/09/09 10:25:18;;;;;;;7.55;3.30;;;24.00;79.70;;;;;;4983244;28;20053;-77
2023/09/09 10:27:44;;;;;;;4.40;4.03;;;23.90;79.80;;;;;;4949444;28;20047;-77
2023/09/09 10:30:10;;;;;;;3.75;3.55;;;24.00;80.10;;;;;;4965687;28;20050;-78
2023/09/09 10:32:36;;;;;;;3.42;3.15;;;24.00;80.10;;;;;;4963845;28;20552;-78
2023/09/09 10:35:08;;;;;;;4.38;4.07;;;24.00;80.10;;;;;;4961379;28;20082;-77
2023/09/09 10:37:35;;;;;;;4.80;4.40;;;24.00;80.40;;;;;;4967282;28;20047;-77
2023/09/09 10:40:00;;;;;;;3.78;3.28;;;24.00;80.30;;;;;;4967334;28;20027;-78
2023/09/09 10:42:26;;;;;;;3.85;3.50;;;24.00;80.60;;;;;;4946647;28;20065;-77
2023/09/09 10:44:53;;;;;;;4.80;4.50;;;24.00;80.60;;;;;;4965318;28;20442;-78
2023/09/09 10:47:19;;;;;;;5.10;4.70;;;24.00;81.10;;;;;;4966771;28;20046;-79
2023/09/09 10:49:45;;;;;;;3.92;3.63;;;24.10;80.60;;;;;;4966706;28;20034;-78
2023/09/09 10:52:29;;;;;;;4.00;3.70;;;24.10;80.80;;;;;;4967551;28;20402;-78
2023/09/09 10:55:11;;;;;;;4.32;3.92;;;24.10;81.00;;;;;;4965102;28;20085;-79
2023/09/09 10:57:36;;;;;;;4.15;3.85;;;24.10;80.10;;;;;;4965365;28;20043;-78
2023/09/09 11:00:06;;;;;;;5.63;4.80;;;24.10;81.30;;;;;;4967104;28;20449;-78
2023/09/09 11:02:42;;;;;;;6.43;5.80;;;24.10;81.10;;;;;;4963620;28;20504;-76
2023/09/09 11:05:12;;;;;;;6.82;5.57;;;24.10;81.30;;;;;;4957734;28;20042;-75
2023/09/09 11:07:41;;;;;;;6.63;5.97;;;24.20;81.50;;;;;;4966260;28;20531;-76
2023/09/09 11:10:07;;;;;;;5.85;5.45;;;24.20;82.50;;;;;;4284475;28;10000720;-77
2023/09/09 11:12:32;;;;;;;6.13;5.63;;;24.20;82.30;;;;;;4627409;28;10000348;-76
2023/09/09 11:15:08;;;;;;;15.10;13.77;;;24.20;81.10;;;;;;4961885;28;20050;-75
2023/09/09 11:17:35;;;;;;;17.30;15.70;;;24.20;81.40;;;;;;4962251;28;21268;-75
2023/09/09 11:20:01;;;;;;;11.95;10.75;;;24.30;82.00;;;;;;4963752;28;20101;-76
2023/09/09 11:22:26;;;;;;;10.52;9.18;;;24.20;82.00;;;;;;4964227;28;20035;-75
2023/09/09 11:24:52;;;;;;;10.73;9.82;;;24.30;82.20;;;;;;4955500;28;20039;-74
2023/09/09 11:27:17;;;;;;;10.32;8.70;;;24.30;82.30;;;;;;4964507;28;20118;-75
2023/09/09 11:29:51;;;;;;;11.48;10.38;;;24.30;82.60;;;;;;4964376;28;20200;-75
2023/09/09 11:32:26;;;;;;;9.68;8.68;;;24.30;82.20;;;;;;4964335;28;20061;-75
2023/09/09 11:34:53;;;;;;;10.07;9.18;;;24.40;82.60;;;;;;4964198;28;20061;-75
2023/09/09 11:37:18;;;;;;;10.00;9.00;;;24.50;82.90;;;;;;4965993;28;20136;-74
2023/09/09 11:39:47;;;;;;;10.07;9.23;;;24.50;81.80;;;;;;4966928;28;20068;-75
2023/09/09 11:42:12;;;;;;;9.52;8.55;;;24.50;81.90;;;;;;4964551;28;20249;-74
2023/09/09 11:44:41;;;;;;;8.35;7.65;;;24.50;81.90;;;;;;4965291;28;20042;-74
2023/09/09 11:47:07;;;;;;;9.45;8.23;;;24.50;81.70;;;;;;4965313;28;20062;-75
2023/09/09 11:49:33;;;;;;;10.20;9.20;;;24.60;81.80;;;;;;4965066;28;20067;-76
2023/09/09 11:51:59;;;;;;;11.13;10.05;;;24.50;81.90;;;;;;4962971;28;20074;-75
2023/09/09 11:54:24;;;;;;;11.00;10.07;;;24.60;81.50;;;;;;4962978;28;20528;-75
2023/09/09 11:56:50;;;;;;;12.27;11.02;;;24.60;81.30;;;;;;4963109;28;20051;-74
2023/09/09 11:59:16;;;;;;;11.68;10.57;;;24.60;81.20;;;;;;4961824;28;20520;-75
2023/09/09 12:01:46;;;;;;;10.50;9.60;;;24.60;80.70;;;;;;4964810;28;20132;-77
2023/09/09 12:04:15;;;;;;;10.48;9.52;;;24.70;80.20;;;;;;4963292;28;20057;-75
2023/09/09 12:06:42;;;;;;;9.32;8.60;;;24.60;80.20;;;;;;4961943;28;20304;-75
2023/09/09 12:09:08;;;;;;;9.20;8.27;;;24.60;80.00;;;;;;4964349;28;20047;-75
2023/09/09 12:11:34;;;;;;;9.50;8.70;;;24.70;80.60;;;;;;4964528;28;20520;-76
2023/09/09 12:14:00;;;;;;;8.48;7.88;;;24.70;79.60;;;;;;4961654;28;20055;-75
2023/09/09 12:16:28;;;;;;;8.18;7.47;;;24.70;79.60;;;;;;4948760;28;20058;-75
2023/09/09 12:18:53;;;;;;;6.90;6.40;;;24.70;79.60;;;;;;4959983;28;20141;-75
2023/09/09 12:21:19;;;;;;;7.95;7.10;;;24.70;79.60;;;;;;4964668;28;20564;-76
2023/09/09 12:23:47;;;;;;;7.43;6.80;;;24.70;80.10;;;;;;4963159;28;20094;-77
2023/09/09 12:26:13;;;;;;;7.00;6.50;;;24.70;80.60;;;;;;4965740;28;20051;-76
2023/09/09 12:29:02;;;;;;;7.65;6.95;;;24.70;80.60;;;;;;4966227;28;20066;-77
2023/09/09 12:31:28;;;;;;;10.10;8.98;;;24.70;80.70;;;;;;4964555;28;20114;-76
2023/09/09 12:33:54;;;;;;;10.80;9.80;;;24.70;80.80;;;;;;4961826;28;20047;-76
2023/09/09 12:36:20;;;;;;;12.07;10.88;;;24.70;81.10;;;;;;4965190;28;20134;-77
2023/09/09 12:38:47;;;;;;;11.13;9.98;;;24.70;81.30;;;;;;4951569;28;20127;-76
2023/09/09 12:41:22;;;;;;;12.38;11.32;;;24.70;82.10;;;;;;4967848;28;20523;-76